Time;durP1;ratioP1;P1;durP2;ratioP2;P2;SDS_P1;SDS_P2;PMS_P1;PMS_P2;Temp;Humidity;BMP_temperature;BMP_pressure;BME280_temperature;BME280_humidity;BME280_pressure;Samples;Min_cycle;Max_cycle;Signal;HPM_P1;HPM_P2
2022/04/09 00:02:41;;;;;;;13.20;6.67;;;5.40;99.90;;;;;;5053317;28;20197;-68
2022/04/09 00:05:29;;;;;;;13.20;6.77;;;5.50;99.90;;;;;;5050628;28;20686;-69
2022/04/09 00:08:16;;;;;;;12.33;6.10;;;5.50;99.90;;;;;;5054751;28;20204;-69
2022/04/09 00:11:05;;;;;;;14.87;7.30;;;5.50;99.90;;;;;;5055526;28;20675;-69
2022/04/09 00:13:52;;;;;;;11.83;6.47;;;5.60;99.90;;;;;;5052323;28;20221;-69
2022/04/09 00:16:40;;;;;;;12.77;5.93;;;5.50;99.90;;;;;;5055004;28;20280;-69
2022/04/09 00:19:27;;;;;;;12.37;6.07;;;5.50;99.90;;;;;;5052724;28;20616;-69
2022/04/09 00:22:14;;;;;;;14.87;7.03;;;5.50;99.90;;;;;;5051152;28;20197;-69
2022/04/09 00:25:01;;;;;;;12.43;6.33;;;5.50;99.90;;;;;;5058084;28;20203;-69
2022/04/09 00:27:50;;;;;;;11.80;6.10;;;5.50;99.90;;;;;;5067336;28;20201;-69
2022/04/09 00:30:38;;;;;;;12.57;6.40;;;5.50;99.90;;;;;;5059764;28;20216;-69
2022/04/09 00:33:25;;;;;;;12.50;6.17;;;5.50;99.90;;;;;;5053682;28;20582;-69
2022/04/09 00:36:12;;;;;;;11.20;6.57;;;5.50;99.90;;;;;;5053302;28;20236;-69
2022/04/09 00:39:00;;;;;;;11.40;6.10;;;5.50;99.90;;;;;;5059456;28;20283;-69
2022/04/09 00:41:49;;;;;;;12.60;6.70;;;5.50;99.90;;;;;;5055155;28;20201;-69
2022/04/09 00:44:38;;;;;;;10.37;6.47;;;5.50;99.90;;;;;;5057480;28;20262;-69
2022/04/09 00:47:25;;;;;;;15.63;7.40;;;5.50;99.90;;;;;;5057473;28;20223;-69
2022/04/09 00:50:13;;;;;;;11.67;6.47;;;5.50;99.90;;;;;;5047124;28;20220;-69
2022/04/09 00:53:00;;;;;;;9.90;5.40;;;5.50;99.90;;;;;;5054807;28;20223;-69
2022/04/09 00:58:55;;;;;;;19.10;8.40;;;5.60;99.90;;;;;;5055733;28;20563;-69
2022/04/09 01:01:44;;;;;;;14.67;8.20;;;5.50;99.90;;;;;;5061975;28;20224;-69
2022/04/09 01:04:31;;;;;;;21.30;10.20;;;5.30;99.90;;;;;;5056327;28;20625;-69
2022/04/09 01:07:19;;;;;;;21.23;10.10;;;5.40;99.90;;;;;;5048898;28;20205;-69
2022/04/09 01:10:08;;;;;;;17.43;8.13;;;5.40;99.90;;;;;;5062396;28;20547;-69
2022/04/09 01:12:55;;;;;;;12.20;6.70;;;5.40;99.90;;;;;;5059234;28;20570;-69
2022/04/09 01:15:43;;;;;;;14.57;7.80;;;5.30;99.90;;;;;;5062246;28;20205;-69
2022/04/09 01:18:33;;;;;;;15.23;8.00;;;5.30;99.90;;;;;;5053083;28;20198;-69
2022/04/09 01:21:20;;;;;;;24.17;10.47;;;5.40;99.90;;;;;;5057727;28;20208;-69
2022/04/09 01:24:09;;;;;;;16.37;8.53;;;5.30;99.90;;;;;;5047335;28;20208;-69
2022/04/09 01:26:58;;;;;;;14.23;8.00;;;5.30;99.90;;;;;;5058250;28;20205;-69
2022/04/09 01:29:45;;;;;;;15.73;8.27;;;5.40;99.90;;;;;;5057018;28;20683;-69
2022/04/09 01:32:32;;;;;;;18.43;8.47;;;5.40;99.90;;;;;;5058230;28;20239;-69
2022/04/09 01:35:20;;;;;;;14.57;8.03;;;5.30;99.90;;;;;;5052660;28;20547;-69
2022/04/09 01:38:07;;;;;;;16.53;8.17;;;5.30;99.90;;;;;;5055416;28;20211;-69
2022/04/09 01:40:56;;;;;;;17.13;8.43;;;5.30;99.90;;;;;;5059080;28;20201;-69
2022/04/09 01:43:43;;;;;;;14.37;7.83;;;5.40;99.90;;;;;;5046538;28;20234;-69
2022/04/09 01:46:30;;;;;;;16.07;7.63;;;5.30;99.90;;;;;;5056605;28;20633;-69
2022/04/09 01:49:18;;;;;;;13.53;7.83;;;5.30;99.90;;;;;;5049552;28;20267;-69
2022/04/09 01:52:05;;;;;;;25.00;9.80;;;5.40;99.90;;;;;;5055563;28;20197;-69
2022/04/09 01:54:53;;;;;;;33.07;13.03;;;5.40;99.90;;;;;;5056804;28;20596;-69
2022/04/09 01:57:41;;;;;;;38.17;16.33;;;5.40;99.90;;;;;;5057789;28;20205;-69
2022/04/09 02:00:29;;;;;;;36.87;17.50;;;5.40;99.90;;;;;;5047851;28;20224;-69
2022/04/09 02:03:17;;;;;;;33.83;15.83;;;5.40;99.90;;;;;;5050078;28;20224;-69
2022/04/09 02:06:04;;;;;;;29.90;14.63;;;5.40;99.90;;;;;;5053019;28;20204;-69
2022/04/09 02:08:51;;;;;;;37.57;18.10;;;5.40;99.90;;;;;;5060350;28;20197;-69
2022/04/09 02:11:39;;;;;;;28.73;14.27;;;5.40;99.90;;;;;;5052555;28;20208;-69
2022/04/09 02:14:28;;;;;;;35.77;17.90;;;5.50;99.90;;;;;;5054611;28;20311;-69
2022/04/09 02:17:15;;;;;;;28.27;14.20;;;5.40;99.90;;;;;;5054369;28;20305;-69
2022/04/09 02:20:03;;;;;;;35.93;15.93;;;5.60;99.90;;;;;;5052139;28;20199;-69
2022/04/09 02:22:50;;;;;;;40.73;15.97;;;5.50;99.90;;;;;;5057741;28;20197;-69
2022/04/09 02:25:37;;;;;;;30.03;14.77;;;5.50;99.90;;;;;;5052497;28;20212;-69
2022/04/09 02:28:26;;;;;;;34.00;14.97;;;5.50;99.90;;;;;;5051315;28;20211;-69
2022/04/09 02:31:17;;;;;;;32.70;16.73;;;5.50;99.90;;;;;;5051202;28;20201;-69
2022/04/09 02:34:05;;;;;;;34.10;17.03;;;5.50;99.90;;;;;;5055525;28;20229;-70
2022/04/09 02:36:52;;;;;;;40.33;19.43;;;5.60;99.90;;;;;;5055911;28;20232;-70
2022/04/09 02:39:39;;;;;;;38.50;19.43;;;5.50;99.90;;;;;;5056585;28;20192;-70
2022/04/09 02:42:27;;;;;;;34.77;19.30;;;5.50;99.90;;;;;;5049712;28;20569;-70
2022/04/09 02:45:14;;;;;;;39.17;19.23;;;5.60;99.90;;;;;;5051207;28;20233;-69
2022/04/09 02:48:03;;;;;;;35.30;17.93;;;5.50;99.90;;;;;;5056201;28;20208;-70
2022/04/09 02:50:50;;;;;;;33.67;17.00;;;5.50;99.90;;;;;;5053098;28;20204;-69
2022/04/09 02:53:37;;;;;;;33.13;17.47;;;5.50;99.90;;;;;;5051805;28;20248;-69
2022/04/09 02:56:25;;;;;;;35.13;19.20;;;5.50;99.90;;;;;;5056406;28;20204;-69
2022/04/09 02:59:13;;;;;;;35.83;17.77;;;5.50;99.90;;;;;;5052996;28;20205;-70
2022/04/09 03:02:00;;;;;;;33.27;17.67;;;5.60;99.90;;;;;;5050474;28;20196;-69
2022/04/09 03:04:49;;;;;;;34.10;17.10;;;5.60;99.90;;;;;;5052902;28;20568;-69
2022/04/09 03:07:36;;;;;;;35.90;18.07;;;5.60;99.90;;;;;;5050397;28;20197;-69
2022/04/09 03:10:24;;;;;;;35.23;18.37;;;5.60;99.90;;;;;;5052974;28;20201;-69
2022/04/09 03:13:11;;;;;;;32.73;17.00;;;5.60;99.90;;;;;;5055348;28;20209;-69
2022/04/09 03:15:58;;;;;;;39.03;19.13;;;5.50;99.90;;;;;;5051118;28;20222;-69
2022/04/09 03:18:46;;;;;;;37.50;19.13;;;5.50;99.90;;;;;;5051499;28;20201;-69
2022/04/09 03:21:34;;;;;;;41.83;20.77;;;5.60;99.90;;;;;;5050451;28;20193;-70
2022/04/09 03:24:22;;;;;;;41.87;19.53;;;5.50;99.90;;;;;;5048420;28;20324;-69
2022/04/09 03:27:09;;;;;;;44.90;21.27;;;5.50;99.90;;;;;;5055590;28;20200;-69
2022/04/09 03:29:56;;;;;;;35.67;18.47;;;5.50;99.90;;;;;;5051874;28;20193;-70
2022/04/09 03:32:44;;;;;;;37.20;19.63;;;5.50;99.90;;;;;;5052045;28;20663;-69
2022/04/09 03:35:31;;;;;;;35.13;18.90;;;5.50;99.90;;;;;;5052280;28;20197;-70
2022/04/09 03:38:20;;;;;;;43.47;19.23;;;5.50;99.90;;;;;;5049182;28;20197;-69
2022/04/09 03:41:07;;;;;;;145.20;20.87;;;5.40;99.90;;;;;;5046736;28;20208;-69
2022/04/09 03:43:55;;;;;;;64.27;18.87;;;5.40;99.90;;;;;;5054341;28;20229;-69
2022/04/09 03:46:42;;;;;;;58.33;19.80;;;5.40;99.90;;;;;;5055485;28;20272;-69
2022/04/09 03:49:29;;;;;;;46.00;20.17;;;5.50;99.90;;;;;;5060409;28;20200;-70
2022/04/09 03:52:17;;;;;;;50.13;20.57;;;5.50;99.90;;;;;;5054181;28;20286;-70
2022/04/09 03:55:07;;;;;;;79.90;22.63;;;5.50;99.90;;;;;;5056651;28;20220;-70
2022/04/09 03:57:54;;;;;;;121.30;24.77;;;5.50;99.90;;;;;;5055914;28;20241;-69
2022/04/09 04:00:42;;;;;;;148.30;25.97;;;5.50;99.90;;;;;;5060038;28;20596;-70
2022/04/09 04:03:29;;;;;;;301.90;25.43;;;5.60;99.90;;;;;;5058479;28;20193;-69
2022/04/09 04:06:16;;;;;;;70.53;23.87;;;5.60;99.90;;;;;;5052017;28;20232;-69
2022/04/09 04:09:04;;;;;;;120.60;23.23;;;5.50;99.90;;;;;;5060231;28;20207;-70
2022/04/09 04:11:52;;;;;;;93.70;21.47;;;5.50;99.90;;;;;;5059399;28;20281;-70
2022/04/09 04:14:40;;;;;;;75.83;21.33;;;5.60;99.90;;;;;;5052094;28;20221;-70
2022/04/09 04:17:27;;;;;;;75.97;21.60;;;5.60;99.90;;;;;;5053943;28;20652;-69
2022/04/09 04:20:14;;;;;;;64.70;20.73;;;5.60;99.90;;;;;;5054678;28;20206;-70
2022/04/09 04:23:03;;;;;;;51.77;20.83;;;5.60;99.90;;;;;;5059126;28;20208;-69
2022/04/09 04:25:50;;;;;;;38.87;16.60;;;5.60;99.90;;;;;;5059151;28;20540;-69
2022/04/09 04:28:39;;;;;;;36.47;17.40;;;5.60;99.90;;;;;;5055023;28;20692;-69
2022/04/09 04:31:26;;;;;;;34.57;16.87;;;5.60;99.90;;;;;;5053214;28;20226;-70
2022/04/09 04:34:14;;;;;;;31.53;15.47;;;5.60;99.90;;;;;;5054656;28;20217;-70
2022/04/09 04:37:01;;;;;;;30.13;15.07;;;5.60;99.90;;;;;;5062533;28;20377;-71
2022/04/09 04:39:48;;;;;;;25.07;13.03;;;5.60;99.90;;;;;;5053185;28;20208;-71
2022/04/09 04:42:36;;;;;;;26.20;13.77;;;5.70;99.90;;;;;;5054457;28;20205;-70
2022/04/09 04:45:25;;;;;;;19.03;10.43;;;5.60;99.90;;;;;;5057219;28;20256;-70
2022/04/09 04:48:12;;;;;;;15.13;8.63;;;5.60;99.90;;;;;;5059751;28;20200;-70
2022/04/09 04:50:59;;;;;;;16.43;8.80;;;5.60;99.90;;;;;;5053325;28;20656;-70
2022/04/09 04:53:46;;;;;;;11.83;7.30;;;5.60;99.90;;;;;;5064922;28;20296;-70
2022/04/09 04:56:34;;;;;;;13.13;7.20;;;5.60;99.90;;;;;;5065001;28;20204;-70
2022/04/09 04:59:21;;;;;;;12.07;6.77;;;5.60;99.90;;;;;;5064609;28;20655;-70
2022/04/09 05:02:10;;;;;;;11.77;7.23;;;5.60;99.90;;;;;;5059578;28;20667;-71
2022/04/09 05:04:57;;;;;;;12.03;6.53;;;5.60;99.90;;;;;;5056685;28;20193;-70
2022/04/09 05:07:45;;;;;;;11.83;5.90;;;5.60;99.90;;;;;;5046756;28;20770;-70
2022/04/09 05:10:32;;;;;;;10.00;6.20;;;5.60;99.90;;;;;;5041553;28;20220;-70
2022/04/09 05:13:20;;;;;;;7.23;4.87;;;5.50;99.90;;;;;;5039239;28;20198;-70
2022/04/09 05:16:07;;;;;;;10.17;5.70;;;5.40;99.90;;;;;;5041349;28;20766;-70
2022/04/09 05:18:56;;;;;;;10.67;5.67;;;5.40;99.90;;;;;;5043263;28;20657;-70
2022/04/09 05:21:45;;;;;;;9.17;5.20;;;5.40;99.90;;;;;;5041464;28;20675;-69
2022/04/09 05:24:32;;;;;;;7.77;4.37;;;5.40;99.90;;;;;;5054164;28;20209;-71
2022/04/09 05:27:20;;;;;;;11.23;5.73;;;5.30;99.90;;;;;;5061760;28;20205;-70
2022/04/09 05:30:09;;;;;;;11.23;6.73;;;5.30;99.90;;;;;;5061110;28;20207;-70
2022/04/09 05:32:56;;;;;;;10.07;5.77;;;5.30;99.90;;;;;;5064149;28;20274;-70
2022/04/09 05:35:45;;;;;;;10.93;5.57;;;5.30;99.90;;;;;;5059239;28;20213;-70
2022/04/09 05:38:32;;;;;;;7.17;4.47;;;5.20;99.90;;;;;;5057920;28;20204;-70
2022/04/09 05:41:20;;;;;;;7.20;4.27;;;5.20;99.90;;;;;;5057685;28;20275;-71
2022/04/09 05:44:07;;;;;;;7.40;4.10;;;5.20;99.90;;;;;;5064791;28;20232;-70
2022/04/09 05:46:54;;;;;;;8.93;3.40;;;5.10;99.90;;;;;;5062376;28;20196;-70
2022/04/09 05:49:42;;;;;;;6.33;3.20;;;5.10;99.90;;;;;;5058813;28;20687;-70
2022/04/09 05:52:30;;;;;;;6.40;3.53;;;5.00;99.90;;;;;;5061391;28;20209;-70
2022/04/09 05:55:18;;;;;;;11.03;4.20;;;5.00;99.90;;;;;;5061422;28;20216;-70
2022/04/09 05:58:05;;;;;;;8.27;4.17;;;4.80;99.90;;;;;;5056684;28;20297;-70
2022/04/09 06:00:53;;;;;;;7.07;3.30;;;4.80;99.90;;;;;;5062949;28;20200;-70
2022/04/09 06:03:40;;;;;;;6.47;2.70;;;4.60;99.90;;;;;;5064390;28;20208;-70
2022/04/09 06:06:27;;;;;;;4.50;2.37;;;4.50;99.90;;;;;;5063444;28;20201;-70
2022/04/09 06:09:16;;;;;;;2.47;1.57;;;4.30;99.90;;;;;;5054815;28;20241;-69
2022/04/09 06:12:06;;;;;;;3.13;1.93;;;3.90;99.90;;;;;;5067292;28;20554;-70
2022/04/09 06:14:53;;;;;;;2.23;1.30;;;3.70;99.90;;;;;;5048556;28;20253;-69
2022/04/09 06:17:41;;;;;;;3.53;1.50;;;3.50;99.90;;;;;;5040540;28;20212;-69
2022/04/09 06:20:28;;;;;;;3.93;1.63;;;3.40;99.90;;;;;;5053090;28;20209;-69
2022/04/09 06:23:16;;;;;;;2.77;1.10;;;3.20;99.90;;;;;;5059778;28;20659;-70
2022/04/09 06:26:04;;;;;;;2.77;1.37;;;3.10;99.90;;;;;;5059766;28;20567;-69
2022/04/09 06:28:52;;;;;;;2.63;1.37;;;3.00;99.90;;;;;;5053471;28;20703;-69
2022/04/09 06:31:39;;;;;;;4.43;0.83;;;3.00;99.90;;;;;;5054666;28;20656;-69
2022/04/09 06:34:26;;;;;;;1.57;1.00;;;2.90;99.90;;;;;;5061736;28;20224;-69
2022/04/09 06:37:14;;;;;;;1.60;1.03;;;2.80;99.90;;;;;;5055900;28;20718;-69
2022/04/09 06:40:01;;;;;;;2.40;1.40;;;2.70;99.90;;;;;;5046964;28;20200;-69
2022/04/09 06:42:51;;;;;;;2.63;1.40;;;2.80;99.90;;;;;;5050723;28;20236;-69
2022/04/09 06:45:38;;;;;;;1.80;1.20;;;2.70;99.90;;;;;;5042708;28;20236;-68
2022/04/09 06:48:26;;;;;;;2.97;1.47;;;2.70;99.90;;;;;;5042131;28;20209;-67
2022/04/09 06:51:14;;;;;;;2.27;1.70;;;2.70;99.90;;;;;;5045397;28;20205;-68
2022/04/09 06:54:01;;;;;;;2.20;1.40;;;2.70;99.90;;;;;;5048892;28;20216;-67
2022/04/09 06:56:48;;;;;;;4.60;2.33;;;2.70;99.90;;;;;;5041147;28;20547;-68
2022/04/09 06:59:37;;;;;;;4.80;2.57;;;2.80;99.90;;;;;;5030420;28;20228;-67
2022/04/09 07:02:24;;;;;;;4.17;2.60;;;2.80;99.90;;;;;;5029022;28;20320;-67
2022/04/09 07:05:12;;;;;;;5.83;2.63;;;2.80;99.90;;;;;;5037682;28;20578;-67
2022/04/09 07:08:01;;;;;;;5.43;3.30;;;2.80;99.90;;;;;;5035428;28;20202;-67
2022/04/09 07:10:48;;;;;;;4.27;2.60;;;2.80;99.90;;;;;;5033093;28;20198;-67
2022/04/09 07:13:36;;;;;;;6.47;3.00;;;2.90;99.90;;;;;;5028147;28;20249;-67
2022/04/09 07:16:24;;;;;;;3.90;2.57;;;2.90;99.90;;;;;;5029970;28;20589;-67
2022/04/09 07:19:12;;;;;;;7.47;1.83;;;2.80;99.90;;;;;;5040401;28;20575;-67
2022/04/09 07:21:59;;;;;;;4.33;2.57;;;2.80;99.90;;;;;;5034541;28;20210;-67
2022/04/09 07:24:46;;;;;;;4.73;3.13;;;2.90;99.90;;;;;;5037952;28;20672;-67
2022/04/09 07:27:37;;;;;;;9.20;3.70;;;2.90;99.90;;;;;;5029487;28;20214;-67
2022/04/09 07:30:26;;;;;;;8.93;3.40;;;3.00;99.90;;;;;;5034714;28;20676;-67
2022/04/09 07:33:15;;;;;;;5.63;3.60;;;3.10;99.90;;;;;;5029342;28;20763;-67
2022/04/09 07:36:02;;;;;;;6.37;4.37;;;3.10;99.90;;;;;;5027284;28;20233;-67
2022/04/09 07:38:50;;;;;;;5.80;3.63;;;3.10;99.90;;;;;;5037530;28;20204;-67
2022/04/09 07:41:37;;;;;;;6.87;4.53;;;3.10;99.90;;;;;;5038700;28;20327;-67
2022/04/09 07:44:24;;;;;;;9.30;4.23;;;3.00;99.90;;;;;;5030369;28;20293;-67
2022/04/09 07:47:12;;;;;;;7.03;4.37;;;3.00;99.90;;;;;;5046630;28;20631;-67
2022/04/09 07:50:02;;;;;;;4.70;3.27;;;2.90;99.90;;;;;;5061863;28;20193;-67
2022/04/09 07:52:49;;;;;;;6.50;4.07;;;2.90;99.90;;;;;;5045168;28;20204;-67
2022/04/09 07:55:37;;;;;;;6.97;5.10;;;3.00;99.90;;;;;;5029454;28;20826;-67
2022/04/09 07:58:24;;;;;;;8.10;5.20;;;3.10;99.90;;;;;;5034105;28;20598;-67
2022/04/09 08:01:11;;;;;;;9.17;4.83;;;3.00;99.90;;;;;;5039169;28;20216;-68
2022/04/09 08:03:59;;;;;;;8.53;5.40;;;3.10;99.90;;;;;;5041225;28;20201;-68
2022/04/09 08:06:48;;;;;;;9.83;5.33;;;3.00;99.90;;;;;;5042841;28;20570;-68
2022/04/09 08:09:35;;;;;;;6.53;4.90;;;3.00;99.90;;;;;;5058220;28;20197;-68
2022/04/09 08:12:22;;;;;;;7.43;5.27;;;2.90;99.90;;;;;;5057609;28;20201;-68
2022/04/09 08:15:10;;;;;;;9.07;5.33;;;3.00;99.90;;;;;;5057350;28;20693;-68
2022/04/09 08:17:58;;;;;;;7.53;5.30;;;3.10;99.90;;;;;;5054829;28;20198;-67
2022/04/09 08:20:46;;;;;;;10.40;5.33;;;3.10;99.90;;;;;;5045542;28;20202;-68
2022/04/09 08:23:35;;;;;;;8.83;5.53;;;3.20;99.90;;;;;;5049080;28;20206;-69
2022/04/09 08:26:22;;;;;;;8.20;5.23;;;3.30;99.90;;;;;;5053162;28;20607;-69
2022/04/09 08:29:10;;;;;;;9.50;5.60;;;3.20;99.90;;;;;;4417751;28;654197;-68
2022/04/09 08:31:58;;;;;;;11.17;5.57;;;3.20;99.90;;;;;;4386429;28;656466;-68
2022/04/09 08:34:46;;;;;;;8.67;5.20;;;3.30;99.90;;;;;;4376028;28;657010;-69
2022/04/09 08:37:35;;;;;;;10.03;5.33;;;3.40;99.90;;;;;;4402634;28;655816;-69
2022/04/09 08:40:23;;;;;;;8.17;5.33;;;3.40;99.90;;;;;;4385917;28;657063;-69
2022/04/09 08:43:11;;;;;;;9.13;5.33;;;3.60;99.90;;;;;;4387517;28;656103;-69
2022/04/09 08:46:00;;;;;;;8.00;4.27;;;3.50;99.90;;;;;;4391793;28;657165;-69
2022/04/09 08:48:49;;;;;;;9.33;5.00;;;3.40;99.90;;;;;;4368671;28;656246;-69
2022/04/09 08:51:37;;;;;;;12.03;5.63;;;3.40;99.90;;;;;;4364925;28;655892;-69
2022/04/09 08:54:24;;;;;;;11.73;5.73;;;3.50;99.90;;;;;;4390498;28;656153;-70
2022/04/09 08:57:13;;;;;;;8.50;5.35;;;3.60;99.90;;;;;;4363885;28;656360;-69
2022/04/09 09:00:01;;;;;;;8.65;5.50;;;3.40;99.90;;;;;;4374731;28;655243;-69
2022/04/09 09:02:50;;;;;;;11.40;5.97;;;3.50;99.90;;;;;;4388288;28;656278;-69
2022/04/09 09:05:38;;;;;;;16.93;8.10;;;3.30;99.90;;;;;;4362881;28;656968;-69
2022/04/09 09:08:38;;;;;;;14.87;7.43;;;3.60;99.90;;;;;;4365487;28;656616;-69
2022/04/09 09:11:27;;;;;;;12.00;6.60;;;3.60;99.90;;;;;;4337433;28;657151;-70
2022/04/09 09:14:25;;;;;;;12.63;7.37;;;3.60;99.90;;;;;;4376514;28;656306;-69
2022/04/09 09:17:12;;;;;;;18.53;8.73;;;3.70;99.90;;;;;;4335864;28;656808;-69
2022/04/09 09:20:00;;;;;;;22.90;10.17;;;3.60;99.90;;;;;;4385394;28;656878;-69
2022/04/09 09:22:49;;;;;;;18.80;9.80;;;3.70;99.90;;;;;;4347038;28;658426;-70
2022/04/09 09:25:48;;;;;;;15.60;9.57;;;3.90;99.90;;;;;;4358005;28;656707;-69
2022/04/09 09:28:35;;;;;;;14.03;8.13;;;4.10;99.90;;;;;;4341838;28;656255;-69
2022/04/09 09:31:42;;;;;;;13.57;7.57;;;3.90;99.90;;;;;;4392335;28;657903;-69
2022/04/09 09:34:29;;;;;;;13.30;7.27;;;4.00;99.90;;;;;;4369082;28;656782;-69
2022/04/09 09:37:22;;;;;;;11.80;7.43;;;3.80;99.90;;;;;;4369252;28;656561;-69
2022/04/09 09:40:11;;;;;;;9.57;6.17;;;3.80;99.90;;;;;;4370374;28;657004;-69
2022/04/09 09:43:13;;;;;;;15.67;8.10;;;3.70;99.90;;;;;;4356228;28;655912;-68
2022/04/09 09:46:01;;;;;;;11.07;7.60;;;3.80;99.90;;;;;;4368153;28;656360;-69
2022/04/09 09:48:52;;;;;;;14.23;8.80;;;3.80;99.90;;;;;;4385037;28;656235;-68
2022/04/09 09:51:40;;;;;;;18.80;10.50;;;3.90;99.90;;;;;;4385074;28;656334;-69
2022/04/09 09:54:28;;;;;;;15.73;10.77;;;3.90;99.90;;;;;;4366768;28;657751;-69
2022/04/09 09:57:21;;;;;;;17.63;9.27;;;3.80;99.90;;;;;;4353336;28;658134;-69
2022/04/09 10:00:10;;;;;;;21.80;11.60;;;3.90;99.90;;;;;;4355946;28;657198;-69
2022/04/09 10:02:58;;;;;;;23.67;12.30;;;4.00;99.90;;;;;;4352791;28;657668;-69
2022/04/09 10:05:48;;;;;;;17.73;11.37;;;4.00;99.90;;;;;;4378118;28;657787;-68
2022/04/09 10:08:35;;;;;;;23.27;12.27;;;4.10;99.90;;;;;;4377714;28;658031;-68
2022/04/09 10:11:23;;;;;;;19.10;12.07;;;4.00;99.90;;;;;;4388570;28;658829;-68
2022/04/09 10:14:11;;;;;;;20.43;12.50;;;4.00;99.90;;;;;;4374746;28;657722;-68
2022/04/09 10:16:58;;;;;;;22.27;12.40;;;3.90;99.90;;;;;;4390187;28;657986;-68
2022/04/09 10:19:45;;;;;;;22.70;13.30;;;3.80;99.90;;;;;;4362832;28;658048;-68
2022/04/09 10:22:50;;;;;;;19.90;11.67;;;3.90;99.90;;;;;;4379083;28;657541;-68
2022/04/09 10:25:41;;;;;;;22.60;13.07;;;3.90;99.90;;;;;;4358812;28;657587;-68
2022/04/09 10:28:32;;;;;;;20.60;10.97;;;4.10;99.90;;;;;;4366188;28;658063;-68
2022/04/09 10:31:36;;;;;;;21.87;12.17;;;4.20;99.90;;;;;;4364623;28;657289;-68
2022/04/09 10:34:24;;;;;;;23.23;13.73;;;4.30;99.90;;;;;;4373065;28;657888;-68
2022/04/09 10:37:11;;;;;;;20.57;13.13;;;4.40;99.90;;;;;;4370411;28;657642;-68
2022/04/09 10:40:00;;;;;;;24.10;14.27;;;4.50;99.90;;;;;;4396531;28;658427;-68
2022/04/09 10:42:49;;;;;;;26.90;15.13;;;4.50;99.90;;;;;;4374175;28;658852;-68
2022/04/09 10:45:55;;;;;;;29.33;15.33;;;4.70;99.90;;;;;;4377480;28;658163;-68
2022/04/09 10:48:44;;;;;;;29.60;15.50;;;4.70;99.90;;;;;;4386748;28;657238;-68
2022/04/09 10:51:41;;;;;;;26.83;16.07;;;4.70;99.90;;;;;;4369283;28;659837;-68
2022/04/09 10:54:28;;;;;;;27.80;15.25;;;4.80;99.90;;;;;;4381634;28;658402;-68
2022/04/09 10:57:23;;;;;;;28.47;15.70;;;4.70;99.90;;;;;;4369813;28;657822;-69
2022/04/09 11:00:32;;;;;;;27.13;15.20;;;4.70;99.90;;;;;;4368550;28;657347;-69
2022/04/09 11:03:33;;;;;;;30.17;15.73;;;4.60;99.90;;;;;;4362094;28;657159;-69
2022/04/09 11:06:40;;;;;;;30.97;17.03;;;4.50;99.90;;;;;;4345254;28;657877;-69
2022/04/09 11:09:28;;;;;;;28.60;17.10;;;4.40;99.90;;;;;;4363192;28;658099;-69
2022/04/09 11:12:16;;;;;;;29.10;16.60;;;4.40;99.90;;;;;;4377442;28;657338;-68
2022/04/09 11:15:06;;;;;;;27.87;14.87;;;4.30;99.90;;;;;;4386784;28;658103;-69
2022/04/09 11:17:59;;;;;;;33.70;17.53;;;4.40;99.90;;;;;;4360638;28;658336;-69
2022/04/09 11:20:47;;;;;;;28.90;17.37;;;4.30;99.90;;;;;;4339349;28;657896;-69
2022/04/09 11:23:34;;;;;;;32.23;17.00;;;4.50;99.90;;;;;;4386471;28;658234;-69
2022/04/09 11:26:26;;;;;;;37.77;18.37;;;4.50;99.90;;;;;;4360739;28;657983;-69
2022/04/09 11:29:13;;;;;;;25.07;15.97;;;4.60;99.90;;;;;;4365517;28;657617;-69
2022/04/09 11:32:03;;;;;;;32.08;17.77;;;4.70;99.90;;;;;;4365280;28;657502;-69
2022/04/09 11:34:51;;;;;;;17.10;8.80;;;4.50;99.90;;;;;;4380420;28;657564;-68
2022/04/09 11:37:40;;;;;;;34.13;18.80;;;4.50;99.90;;;;;;4387345;28;657677;-68
2022/04/09 11:40:27;;;;;;;30.97;17.93;;;4.40;99.90;;;;;;4366249;28;659822;-68
2022/04/09 11:43:15;;;;;;;31.00;16.25;;;4.40;99.90;;;;;;4388831;28;657703;-69
2022/04/09 11:46:04;;;;;;;31.47;17.20;;;4.40;99.90;;;;;;4373281;28;658358;-69
2022/04/09 11:49:01;;;;;;;33.63;20.37;;;4.50;99.90;;;;;;4370816;28;657338;-69
2022/04/09 11:51:54;;;;;;;38.77;20.90;;;4.60;99.90;;;;;;4363155;28;658028;-69
2022/04/09 11:54:43;;;;;;;30.83;16.80;;;4.70;99.90;;;;;;4337386;28;657651;-69
2022/04/09 11:57:30;;;;;;;35.70;17.87;;;4.70;99.90;;;;;;4377457;28;658059;-69
2022/04/09 12:00:18;;;;;;;33.57;18.47;;;4.80;99.90;;;;;;4385995;28;658949;-68
2022/04/09 12:03:06;;;;;;;33.50;21.23;;;4.70;99.90;;;;;;4372090;28;657855;-68
2022/04/09 12:06:08;;;;;;;29.67;16.45;;;4.80;99.90;;;;;;4386245;28;658099;-69
2022/04/09 12:08:55;;;;;;;29.27;17.07;;;4.80;99.90;;;;;;4346965;28;657780;-69
2022/04/09 12:11:43;;;;;;;31.43;19.23;;;4.90;99.90;;;;;;4379894;28;659231;-69
2022/04/09 12:14:30;;;;;;;31.80;17.73;;;5.00;99.90;;;;;;4367563;28;658062;-69
2022/04/09 12:17:18;;;;;;;34.10;19.20;;;5.00;99.90;;;;;;4385505;28;658899;-69
2022/04/09 12:20:30;;;;;;;28.93;17.83;;;5.20;99.90;;;;;;4383443;28;658239;-69
2022/04/09 12:23:31;;;;;;;32.13;17.47;;;5.10;99.90;;;;;;4349264;28;659791;-69
2022/04/09 12:26:24;;;;;;;35.27;17.50;;;5.20;99.90;;;;;;4382412;28;658314;-69
2022/04/09 12:29:13;;;;;;;32.10;18.30;;;5.10;1.00;;;;;;4378834;28;658027;-69
2022/04/09 12:32:17;;;;;;;30.23;16.50;;;5.10;1.00;;;;;;4387642;28;656595;-69
2022/04/09 12:35:06;;;;;;;28.38;16.15;;;5.10;99.90;;;;;;4374289;28;656930;-69
2022/04/09 12:37:54;;;;;;;20.97;12.40;;;5.10;91.60;;;;;;4403539;28;659413;-69
2022/04/09 12:41:12;;;;;;;21.53;12.73;;;5.10;99.90;;;;;;4375541;28;658152;-69
2022/04/09 12:44:00;;;;;;;27.50;14.73;;;5.00;1.00;;;;;;4380339;28;657914;-69
2022/04/09 12:46:57;;;;;;;17.47;9.90;;;5.00;1.00;;;;;;4385845;28;657139;-70
2022/04/09 12:52:59;;;;;;;13.13;7.83;;;4.10;99.90;;;;;;4385051;28;659119;-70
2022/04/09 12:55:52;;;;;;;13.87;8.77;;;3.20;99.90;;;;;;4386532;28;656450;-70
2022/04/09 12:58:41;;;;;;;15.77;9.90;;;2.90;99.90;;;;;;4395036;28;656750;-70
2022/04/09 13:01:28;;;;;;;16.07;9.67;;;3.00;99.90;;;;;;4395159;28;657580;-69
2022/04/09 13:04:15;;;;;;;13.20;8.47;;;3.20;99.90;;;;;;4376458;28;656743;-69
2022/04/09 13:07:05;;;;;;;14.10;9.03;;;3.50;99.90;;;;;;4406139;28;657888;-69
2022/04/09 13:09:56;;;;;;;14.97;8.40;;;3.70;1.00;;;;;;4381953;28;657804;-69
2022/04/09 13:12:43;;;;;;;12.40;6.90;;;3.90;1.00;;;;;;4386587;28;656041;-69
2022/04/09 13:15:32;;;;;;;17.83;8.93;;;4.10;1.00;;;;;;4384918;28;656037;-69
2022/04/09 13:18:23;;;;;;;17.83;9.20;;;4.30;99.90;;;;;;4403187;28;655690;-69
2022/04/09 13:21:10;;;;;;;18.63;10.43;;;4.50;99.90;;;;;;4364999;28;656754;-69
2022/04/09 13:23:58;;;;;;;20.73;11.03;;;4.70;99.90;;;;;;4405263;28;658098;-69
2022/04/09 13:26:47;;;;;;;18.83;10.90;;;4.70;99.90;;;;;;4398502;28;657924;-69
2022/04/09 13:29:36;;;;;;;22.70;12.13;;;4.60;99.90;;;;;;4411847;28;657847;-69
2022/04/09 13:32:29;;;;;;;19.83;12.43;;;4.60;99.90;;;;;;4384645;28;658236;-69
2022/04/09 13:35:25;;;;;;;22.60;12.43;;;4.60;99.90;;;;;;4380932;28;657533;-69
2022/04/09 13:38:22;;;;;;;24.50;13.13;;;4.70;99.90;;;;;;4387848;28;657883;-69
2022/04/09 13:41:36;;;;;;;28.53;14.10;;;4.70;99.90;;;;;;4380833;28;658661;-69
2022/04/09 13:44:24;;;;;;;23.63;13.50;;;5.00;99.90;;;;;;4382276;28;657800;-68
2022/04/09 13:47:12;;;;;;;24.87;13.93;;;4.90;99.90;;;;;;4386173;28;657929;-68
2022/04/09 13:50:00;;;;;;;27.40;15.67;;;5.00;99.90;;;;;;4406876;28;657677;-69
2022/04/09 13:52:48;;;;;;;26.10;14.33;;;5.20;99.90;;;;;;4385741;28;658318;-69
2022/04/09 13:55:35;;;;;;;21.13;12.07;;;5.20;99.90;;;;;;4388462;28;658094;-69
2022/04/09 13:58:23;;;;;;;22.13;10.43;;;5.30;99.90;;;;;;4405041;28;659425;-69
2022/04/09 14:01:13;;;;;;;16.57;9.30;;;5.80;99.90;;;;;;4387912;28;657837;-69
2022/04/09 14:04:01;;;;;;;18.57;9.37;;;6.10;99.90;;;;;;4395292;28;656299;-69
2022/04/09 14:06:49;;;;;;;19.20;9.10;;;6.30;99.90;;;;;;4421904;28;656905;-69
2022/04/09 14:09:37;;;;;;;15.27;9.10;;;6.30;99.90;;;;;;4400074;28;656979;-69
2022/04/09 14:12:24;;;;;;;14.17;8.80;;;6.40;99.90;;;;;;4419296;28;656523;-69
2022/04/09 14:15:12;;;;;;;16.23;8.87;;;6.40;99.90;;;;;;4384682;28;656683;-69
2022/04/09 14:17:59;;;;;;;14.00;8.30;;;6.20;99.90;;;;;;4404179;28;656974;-69
2022/04/09 14:20:46;;;;;;;15.60;7.57;;;6.20;99.90;;;;;;4388012;28;656278;-69
2022/04/09 14:23:35;;;;;;;14.40;8.00;;;6.10;99.90;;;;;;4396167;28;656777;-69
2022/04/09 14:26:23;;;;;;;16.27;9.00;;;6.10;1.00;;;;;;4384511;28;657570;-69
2022/04/09 14:29:10;;;;;;;17.97;9.70;;;6.00;99.90;;;;;;4394849;28;655596;-69
2022/04/09 14:31:59;;;;;;;20.33;9.67;;;6.00;1.00;;;;;;4402438;28;657499;-69
2022/04/09 14:34:55;;;;;;;18.00;9.47;;;6.10;1.00;;;;;;4394462;28;655548;-69
2022/04/09 14:37:43;;;;;;;18.30;9.70;;;6.30;99.90;;;;;;4381286;28;656158;-69
2022/04/09 14:40:32;;;;;;;20.55;9.20;;;6.20;1.00;;;;;;4379511;28;656383;-69